createdAt,value
2017-08-28T00:01:05.447Z,16.70
2017-08-28T00:04:03.185Z,16.60
2017-08-28T00:07:00.854Z,16.60
2017-08-28T00:09:58.393Z,16.50
2017-08-28T00:12:55.955Z,16.40
2017-08-28T00:15:53.625Z,16.20
2017-08-28T00:18:51.236Z,16.20
2017-08-28T00:21:48.749Z,16.10
2017-08-28T00:24:46.450Z,16.20
2017-08-28T00:27:44.202Z,16.20
2017-08-28T00:30:42.067Z,16.20
2017-08-28T00:33:39.740Z,16.20
2017-08-28T00:36:37.279Z,16.20
2017-08-28T00:39:34.948Z,16.20
2017-08-28T00:42:32.798Z,16.20
2017-08-28T00:45:31.511Z,16.10
2017-08-28T00:48:29.105Z,16.10
2017-08-28T00:51:26.783Z,16.10
2017-08-28T00:54:24.527Z,16.10
2017-08-28T00:57:22.079Z,16.10
2017-08-28T01:00:19.839Z,16.10
2017-08-28T01:03:17.611Z,16.00
2017-08-28T01:06:15.086Z,15.90
2017-08-28T01:09:12.715Z,15.90
2017-08-28T01:12:10.275Z,16.00
2017-08-28T01:15:07.786Z,15.90
2017-08-28T01:18:05.360Z,15.90
2017-08-28T01:21:03.048Z,15.90
2017-08-28T01:24:00.787Z,15.80
2017-08-28T01:26:59.299Z,15.90
2017-08-28T01:30:00.042Z,15.80
2017-08-28T01:32:57.477Z,15.80
2017-08-28T01:35:55.162Z,15.80
2017-08-28T01:38:52.762Z,15.80
2017-08-28T01:41:50.541Z,15.80
2017-08-28T01:44:48.042Z,15.80
2017-08-28T01:47:45.647Z,15.80
2017-08-28T01:50:42.859Z,15.90
2017-08-28T01:53:40.319Z,16.00
2017-08-28T01:56:38.027Z,16.00
2017-08-28T01:59:35.500Z,16.00
2017-08-28T02:02:32.888Z,16.00
2017-08-28T02:05:30.388Z,16.00
2017-08-28T02:08:28.002Z,16.00
2017-08-28T02:11:25.650Z,16.10
2017-08-28T02:14:23.246Z,16.10
2017-08-28T02:17:20.760Z,16.10
2017-08-28T02:20:18.160Z,16.00
2017-08-28T02:23:15.672Z,15.90
2017-08-28T02:26:13.214Z,15.90
2017-08-28T02:29:10.840Z,15.80
2017-08-28T02:32:08.475Z,15.80
2017-08-28T02:35:06.099Z,15.80
2017-08-28T02:38:03.663Z,15.80
2017-08-28T02:41:01.092Z,16.00
2017-08-28T02:43:58.579Z,16.00
2017-08-28T02:46:55.995Z,16.00
2017-08-28T02:49:53.446Z,16.10
2017-08-28T02:52:51.049Z,16.10
2017-08-28T02:55:48.525Z,16.20
2017-08-28T02:58:46.187Z,16.20
2017-08-28T03:01:46.696Z,16.10
2017-08-28T03:04:44.160Z,16.10
2017-08-28T03:07:41.679Z,16.10
2017-08-28T03:10:39.521Z,16.10
2017-08-28T03:13:37.140Z,16.00
2017-08-28T03:16:34.813Z,16.00
2017-08-28T03:19:32.416Z,15.90
2017-08-28T03:22:30.079Z,15.90
2017-08-28T03:25:27.822Z,15.80
2017-08-28T03:28:25.448Z,15.70
2017-08-28T03:31:22.950Z,15.60
2017-08-28T03:34:20.749Z,15.50
2017-08-28T03:37:18.432Z,15.40
2017-08-28T03:40:16.085Z,15.50
2017-08-28T03:43:13.756Z,15.50
2017-08-28T03:46:11.341Z,15.50
2017-08-28T03:49:09.028Z,15.50
2017-08-28T03:52:06.470Z,15.50
2017-08-28T03:55:04.166Z,15.50
2017-08-28T03:58:01.855Z,15.50
2017-08-28T04:00:59.266Z,15.50
2017-08-28T04:03:56.958Z,15.60
2017-08-28T04:06:54.403Z,15.60
2017-08-28T04:09:51.857Z,15.50
2017-08-28T04:12:49.798Z,15.50
2017-08-28T04:15:47.250Z,15.40
2017-08-28T04:18:44.878Z,15.50
2017-08-28T04:21:44.325Z,15.40
2017-08-28T04:24:47.686Z,15.40
2017-08-28T04:27:45.487Z,15.30
2017-08-28T04:30:45.951Z,15.40
2017-08-28T04:33:43.981Z,15.30
2017-08-28T04:36:41.498Z,15.40
2017-08-28T04:39:39.040Z,15.30
2017-08-28T04:42:36.576Z,15.30
2017-08-28T04:45:34.258Z,15.30
2017-08-28T04:48:31.761Z,15.30
2017-08-28T04:51:29.322Z,15.40
2017-08-28T04:54:26.751Z,15.40
2017-08-28T04:57:24.186Z,15.40
2017-08-28T05:00:21.930Z,15.50
2017-08-28T05:03:19.331Z,15.50
2017-08-28T05:06:17.238Z,15.60
2017-08-28T05:09:15.126Z,15.60
2017-08-28T05:12:17.578Z,15.60
2017-08-28T05:15:15.219Z,15.60
2017-08-28T05:18:12.872Z,15.60
2017-08-28T05:21:10.495Z,15.60
2017-08-28T05:24:07.937Z,15.60
2017-08-28T05:27:05.581Z,15.50
2017-08-28T05:30:03.310Z,15.50
2017-08-28T05:33:00.626Z,15.60
2017-08-28T05:35:57.978Z,15.60
2017-08-28T05:38:55.608Z,15.70
2017-08-28T05:41:53.062Z,15.80
2017-08-28T05:44:50.529Z,15.80
2017-08-28T05:47:48.061Z,15.90
2017-08-28T05:50:45.646Z,16.00
2017-08-28T05:53:43.162Z,16.10
2017-08-28T05:56:40.834Z,16.30
2017-08-28T05:59:38.395Z,16.30
2017-08-28T06:02:35.867Z,16.40
2017-08-28T06:05:33.351Z,16.60
2017-08-28T06:08:30.876Z,16.70
2017-08-28T06:11:28.503Z,16.80
2017-08-28T06:14:25.934Z,16.80
2017-08-28T06:17:23.462Z,16.90
2017-08-28T06:20:20.999Z,17.00
2017-08-28T06:23:18.520Z,17.30
2017-08-28T06:26:16.146Z,17.40
2017-08-28T06:29:13.666Z,17.40
2017-08-28T06:32:11.202Z,17.40
2017-08-28T06:35:08.820Z,17.40
2017-08-28T06:38:06.462Z,17.50
2017-08-28T06:41:03.729Z,17.60
2017-08-28T06:44:01.219Z,17.70
2017-08-28T06:46:58.755Z,17.80
2017-08-28T06:49:56.216Z,17.90
2017-08-28T06:52:53.768Z,18.00
2017-08-28T06:55:51.170Z,18.10
2017-08-28T06:58:48.860Z,18.20
2017-08-28T07:01:46.542Z,18.30
2017-08-28T07:04:44.099Z,18.50
2017-08-28T07:07:41.583Z,18.60
2017-08-28T07:10:39.092Z,18.60
2017-08-28T07:13:36.580Z,18.60
2017-08-28T07:16:43.247Z,18.60
2017-08-28T07:19:40.800Z,18.80
2017-08-28T07:22:38.359Z,18.90
2017-08-28T07:25:35.700Z,19.00
2017-08-28T07:28:33.066Z,19.20
2017-08-28T07:31:30.579Z,19.30
2017-08-28T07:34:28.122Z,19.40
2017-08-28T07:37:25.572Z,19.50
2017-08-28T07:40:23.182Z,19.50
2017-08-28T07:43:20.557Z,19.70
2017-08-28T07:46:18.107Z,19.80
2017-08-28T07:49:15.553Z,20.00
2017-08-28T07:52:13.138Z,20.10
2017-08-28T07:55:10.534Z,20.20
2017-08-28T07:58:08.097Z,20.20
2017-08-28T08:01:05.716Z,20.40
2017-08-28T08:04:03.256Z,20.40
2017-08-28T08:07:00.933Z,20.50
2017-08-28T08:09:58.647Z,20.70
2017-08-28T08:12:56.300Z,20.80
2017-08-28T08:15:53.843Z,20.90
2017-08-28T08:18:51.285Z,21.00
2017-08-28T08:21:48.762Z,21.00
2017-08-28T08:24:46.236Z,21.00
2017-08-28T08:27:43.722Z,21.00
2017-08-28T08:30:41.158Z,21.10
2017-08-28T08:33:44.737Z,21.20
2017-08-28T08:36:42.156Z,21.30
2017-08-28T08:39:39.624Z,21.50
2017-08-28T08:42:37.144Z,21.60
2017-08-28T08:45:34.713Z,21.50
2017-08-28T08:48:32.232Z,21.60
2017-08-28T08:51:30.101Z,21.80
2017-08-28T08:54:27.673Z,21.80
2017-08-28T08:57:25.201Z,21.70
2017-08-28T09:00:22.872Z,21.80
2017-08-28T09:03:20.411Z,21.90
2017-08-28T09:06:17.503Z,22.10
2017-08-28T09:09:14.874Z,22.20
2017-08-28T09:12:12.405Z,22.30
2017-08-28T09:15:09.930Z,22.40
2017-08-28T09:18:07.430Z,22.50
2017-08-28T09:21:05.238Z,22.60
2017-08-28T09:24:02.851Z,22.70
2017-08-28T09:27:00.375Z,22.80
2017-08-28T09:29:58.209Z,22.90
2017-08-28T09:32:55.708Z,23.00
2017-08-28T09:35:53.366Z,23.00
2017-08-28T09:38:50.950Z,23.20
2017-08-28T09:41:48.382Z,23.30
2017-08-28T09:44:46.022Z,23.60
2017-08-28T09:47:43.903Z,23.70
2017-08-28T09:50:41.307Z,23.70
2017-08-28T09:53:38.854Z,23.80
2017-08-28T09:56:36.595Z,23.90
2017-08-28T09:59:34.399Z,24.00
2017-08-28T10:02:31.750Z,24.10
2017-08-28T10:05:29.295Z,24.30
2017-08-28T10:08:28.852Z,24.40
2017-08-28T10:11:38.469Z,24.50
2017-08-28T10:14:35.951Z,24.60
2017-08-28T10:17:33.356Z,24.50
2017-08-28T10:20:34.856Z,24.60
2017-08-28T10:23:33.383Z,24.60
2017-08-28T10:26:30.986Z,24.80
2017-08-28T10:29:29.731Z,24.90
2017-08-28T10:32:29.427Z,25.00
2017-08-28T10:35:27.146Z,25.20
2017-08-28T10:38:26.618Z,25.10
2017-08-28T10:41:24.226Z,25.30
2017-08-28T10:44:21.857Z,25.20
2017-08-28T10:47:20.559Z,25.40
2017-08-28T10:50:19.076Z,25.50
2017-08-28T10:53:19.713Z,25.60
2017-08-28T10:56:18.291Z,25.70
2017-08-28T10:59:16.175Z,25.80
2017-08-28T11:02:19.948Z,25.60
2017-08-28T11:05:17.639Z,25.40
2017-08-28T11:08:18.255Z,25.40
2017-08-28T11:11:15.837Z,25.40
2017-08-28T11:14:13.334Z,25.60
2017-08-28T11:17:14.131Z,25.80
2017-08-28T11:20:17.887Z,25.90
2017-08-28T11:23:21.472Z,25.90
2017-08-28T11:26:18.967Z,25.90
2017-08-28T11:29:18.439Z,25.90
2017-08-28T11:32:16.049Z,25.70
2017-08-28T11:35:19.753Z,25.70
2017-08-28T11:38:26.493Z,25.90
2017-08-28T11:41:26.146Z,26.00
2017-08-28T11:44:23.731Z,26.00
2017-08-28T11:47:26.363Z,26.10
2017-08-28T11:50:24.159Z,26.30
2017-08-28T11:53:24.952Z,26.30
2017-08-28T11:56:26.460Z,26.50
2017-08-28T11:59:24.221Z,26.60
2017-08-28T12:02:23.944Z,26.50
2017-08-28T12:05:27.483Z,26.70
2017-08-28T12:08:33.143Z,26.70
2017-08-28T12:11:30.634Z,26.50
2017-08-28T12:14:28.335Z,26.50
2017-08-28T12:17:25.966Z,26.70
2017-08-28T12:20:24.700Z,26.70
2017-08-28T12:23:22.197Z,26.70
2017-08-28T12:26:23.932Z,26.80
2017-08-28T12:29:21.491Z,26.90
2017-08-28T12:32:19.027Z,27.00
2017-08-28T12:35:19.717Z,27.10
2017-08-28T12:38:19.044Z,27.30
2017-08-28T12:41:17.677Z,27.60
2017-08-28T12:44:15.051Z,27.80
2017-08-28T12:47:12.385Z,28.00
2017-08-28T12:50:11.010Z,28.10
2017-08-28T12:53:10.544Z,27.90
2017-08-28T12:56:10.247Z,27.50
2017-08-28T12:59:11.142Z,27.50
2017-08-28T13:02:09.784Z,27.40
2017-08-28T13:05:07.250Z,27.50
2017-08-28T13:08:04.587Z,27.40
2017-08-28T13:11:04.466Z,27.40
2017-08-28T13:14:03.102Z,27.40
2017-08-28T13:17:00.974Z,27.50
2017-08-28T13:19:58.448Z,27.80
2017-08-28T13:22:55.898Z,27.70
2017-08-28T13:25:54.844Z,27.50
2017-08-28T13:28:56.400Z,27.60
2017-08-28T13:31:56.236Z,27.60
2017-08-28T13:34:53.909Z,27.70
2017-08-28T13:37:51.420Z,27.70
2017-08-28T13:40:51.191Z,27.50
2017-08-28T13:43:48.952Z,27.40
2017-08-28T13:46:51.723Z,27.60
2017-08-28T13:49:49.992Z,27.60
2017-08-28T13:52:48.070Z,27.50
2017-08-28T13:55:45.791Z,27.60
2017-08-28T13:58:43.655Z,27.60
2017-08-28T14:01:42.191Z,27.50
2017-08-28T14:04:39.659Z,27.40
2017-08-28T14:07:37.342Z,27.60
2017-08-28T14:10:34.515Z,27.70
2017-08-28T14:13:31.995Z,27.60
2017-08-28T14:16:46.925Z,27.50
2017-08-28T14:19:44.568Z,27.60
2017-08-28T14:22:41.990Z,27.70
2017-08-28T14:25:44.558Z,27.60
2017-08-28T14:28:43.038Z,27.50
2017-08-28T14:31:44.576Z,27.20
2017-08-28T14:34:46.061Z,27.10
2017-08-28T14:37:44.382Z,27.10
2017-08-28T14:40:43.911Z,27.10
2017-08-28T14:43:41.638Z,27.10
2017-08-28T14:46:39.182Z,27.10
2017-08-28T14:49:37.635Z,27.10
2017-08-28T14:52:35.100Z,27.10
2017-08-28T14:55:35.838Z,27.10
2017-08-28T14:58:34.535Z,27.10
2017-08-28T15:01:38.286Z,27.20
2017-08-28T15:04:38.939Z,27.20
2017-08-28T15:07:36.442Z,27.10
2017-08-28T15:10:33.939Z,27.20
2017-08-28T15:13:40.655Z,27.20
2017-08-28T15:16:38.344Z,27.10
2017-08-28T15:19:36.094Z,27.20
2017-08-28T15:22:33.653Z,27.10
2017-08-28T15:25:33.514Z,27.10
2017-08-28T15:28:31.135Z,27.20
2017-08-28T15:31:29.894Z,27.10
2017-08-28T15:34:27.552Z,27.00
2017-08-28T15:37:26.270Z,27.00
2017-08-28T15:40:24.960Z,27.00
2017-08-28T15:43:22.636Z,27.00
2017-08-28T15:46:20.034Z,27.00
2017-08-28T15:49:19.710Z,27.10
2017-08-28T15:52:19.506Z,27.10
2017-08-28T15:55:23.156Z,27.10
2017-08-28T15:58:23.742Z,27.10
2017-08-28T16:01:21.296Z,27.10
2017-08-28T16:04:21.895Z,27.00
2017-08-28T16:07:20.698Z,27.00
2017-08-28T16:10:18.184Z,27.10
2017-08-28T16:13:17.548Z,27.20
2017-08-28T16:16:15.268Z,27.10
2017-08-28T16:19:12.854Z,26.90
2017-08-28T16:22:10.625Z,26.90
2017-08-28T16:25:07.989Z,26.80
2017-08-28T16:28:08.850Z,26.80
2017-08-28T16:31:06.524Z,26.80
2017-08-28T16:34:05.344Z,26.70
2017-08-28T16:37:02.824Z,26.70
2017-08-28T16:40:00.416Z,26.60
2017-08-28T16:43:01.028Z,26.60
2017-08-28T16:45:58.464Z,26.60
2017-08-28T16:48:55.981Z,26.40
2017-08-28T16:51:53.652Z,26.30
2017-08-28T16:54:53.317Z,26.30
2017-08-28T16:57:51.911Z,26.20
2017-08-28T17:00:50.494Z,26.10
2017-08-28T17:03:48.956Z,26.10
2017-08-28T17:06:51.536Z,26.10
2017-08-28T17:09:55.199Z,26.00
2017-08-28T17:12:52.821Z,25.90
2017-08-28T17:15:50.397Z,25.90
2017-08-28T17:18:59.895Z,25.70
2017-08-28T17:21:57.520Z,25.50
2017-08-28T17:24:55.051Z,25.40
2017-08-28T17:27:52.692Z,25.30
2017-08-28T17:30:50.115Z,25.20
2017-08-28T17:33:47.811Z,25.10
2017-08-28T17:36:50.533Z,25.00
2017-08-28T17:39:51.043Z,24.80
2017-08-28T17:42:48.613Z,24.60
2017-08-28T17:45:46.026Z,24.40
2017-08-28T17:48:44.052Z,24.20
2017-08-28T17:51:41.684Z,24.10
2017-08-28T17:54:39.311Z,24.00
2017-08-28T17:57:38.890Z,23.90
2017-08-28T18:00:38.686Z,23.70
2017-08-28T18:03:41.852Z,23.50
2017-08-28T18:06:39.202Z,23.30
2017-08-28T18:09:36.786Z,23.20
2017-08-28T18:12:36.182Z,23.00
2017-08-28T18:15:34.018Z,23.00
2017-08-28T18:18:38.683Z,22.80
2017-08-28T18:21:36.210Z,22.70
2017-08-28T18:24:33.863Z,22.50
2017-08-28T18:27:32.487Z,22.40
2017-08-28T18:30:30.103Z,22.30
2017-08-28T18:33:27.816Z,22.20
2017-08-28T18:36:25.074Z,22.00
2017-08-28T18:39:23.091Z,21.80
2017-08-28T18:42:20.776Z,21.50
2017-08-28T18:45:18.256Z,21.40
2017-08-28T18:48:17.864Z,21.20
2017-08-28T18:51:15.747Z,21.20
2017-08-28T18:54:13.752Z,21.10
2017-08-28T18:57:14.182Z,20.90
2017-08-28T19:00:11.582Z,20.70
2017-08-28T19:03:12.245Z,20.60
2017-08-28T19:06:09.807Z,20.60
2017-08-28T19:09:08.295Z,20.60
2017-08-28T19:12:05.800Z,20.40
2017-08-28T19:15:07.434Z,20.30
2017-08-28T19:18:05.292Z,20.30
2017-08-28T19:21:05.861Z,20.30
2017-08-28T19:24:03.407Z,20.30
2017-08-28T19:27:08.215Z,20.30
2017-08-28T19:30:12.006Z,20.30
2017-08-28T19:33:16.535Z,20.20
2017-08-28T19:36:15.095Z,20.20
2017-08-28T19:39:24.606Z,20.10
2017-08-28T19:42:22.301Z,20.10
2017-08-28T19:45:26.871Z,20.00
2017-08-28T19:48:24.452Z,20.00
2017-08-28T19:51:31.131Z,19.80
2017-08-28T19:54:36.904Z,19.60
2017-08-28T19:57:34.415Z,19.60
2017-08-28T20:00:39.936Z,19.70
2017-08-28T20:03:38.341Z,19.70
2017-08-28T20:06:41.751Z,19.70
2017-08-28T20:09:43.241Z,19.60
2017-08-28T20:12:44.869Z,19.70
2017-08-28T20:15:56.698Z,19.70
2017-08-28T20:18:55.336Z,19.60
2017-08-28T20:21:54.221Z,19.50
2017-08-28T20:24:54.816Z,19.40
2017-08-28T20:28:05.467Z,19.30
2017-08-28T20:31:02.946Z,19.20
2017-08-28T20:34:00.588Z,19.10
2017-08-28T20:36:58.192Z,19.10
2017-08-28T20:39:55.991Z,19.10
2017-08-28T20:46:21.174Z,19.00
2017-08-28T20:49:18.802Z,19.00
2017-08-28T20:52:16.430Z,19.00
2017-08-28T20:55:13.975Z,18.90
2017-08-28T20:58:26.526Z,18.90
2017-08-28T21:01:24.315Z,18.90
2017-08-28T21:04:25.136Z,18.70
2017-08-28T21:07:22.998Z,18.60
2017-08-28T21:10:20.644Z,18.60
2017-08-28T21:13:20.328Z,18.50
2017-08-28T21:16:19.176Z,18.40
2017-08-28T21:19:19.611Z,18.40
2017-08-28T21:22:17.247Z,18.40
2017-08-28T21:25:20.896Z,18.40
2017-08-28T21:28:19.428Z,18.40
2017-08-28T21:31:17.840Z,18.20
2017-08-28T21:34:18.263Z,18.00
2017-08-28T21:37:24.932Z,18.00
2017-08-28T21:40:31.444Z,17.90
2017-08-28T21:43:29.099Z,17.80
2017-08-28T21:46:26.610Z,17.70
2017-08-28T21:49:24.218Z,17.60
2017-08-28T21:52:26.848Z,17.60
2017-08-28T21:55:25.471Z,17.60
2017-08-28T21:58:40.958Z,17.60
2017-08-28T22:01:38.644Z,17.60
2017-08-28T22:04:38.375Z,17.50
2017-08-28T22:07:36.870Z,17.40
2017-08-28T22:10:37.515Z,17.40
2017-08-28T22:13:43.103Z,17.40
2017-08-28T22:16:42.723Z,17.50
2017-08-28T22:19:40.340Z,17.40
2017-08-28T22:22:46.916Z,17.40
2017-08-28T22:25:44.459Z,17.30
2017-08-28T22:28:44.093Z,17.20
2017-08-28T22:31:42.555Z,17.30
2017-08-28T22:34:46.515Z,17.20
2017-08-28T22:37:44.068Z,17.20
2017-08-28T22:40:42.743Z,17.20
2017-08-28T22:43:44.161Z,17.20
2017-08-28T22:46:44.607Z,17.20
2017-08-28T22:49:42.464Z,17.10
2017-08-28T22:52:44.341Z,17.10
2017-08-28T22:55:43.051Z,17.10
2017-08-28T22:58:41.690Z,17.00
2017-08-28T23:01:39.262Z,16.80
2017-08-28T23:04:39.834Z,16.60
2017-08-28T23:07:43.328Z,16.70
2017-08-28T23:10:40.851Z,16.80
2017-08-28T23:13:43.565Z,16.90
2017-08-28T23:16:43.236Z,16.90
2017-08-28T23:19:57.851Z,16.80
2017-08-28T23:22:55.491Z,16.80
2017-08-28T23:25:54.069Z,16.80
2017-08-28T23:28:51.716Z,16.80
2017-08-28T23:31:49.271Z,16.70
2017-08-28T23:34:53.007Z,16.50
2017-08-28T23:37:50.833Z,16.30
2017-08-28T23:40:54.596Z,16.20
2017-08-28T23:43:55.219Z,16.30
2017-08-28T23:46:54.630Z,16.30
2017-08-28T23:49:52.456Z,16.40
2017-08-28T23:52:51.095Z,16.50
2017-08-28T23:55:49.880Z,16.50
2017-08-28T23:58:49.594Z,16.40
